createdAt,value
2018-08-12T00:00:53.088Z,99812.05
2018-08-12T00:03:20.836Z,99822.70
2018-08-12T00:05:48.579Z,99819.16
2018-08-12T00:08:16.258Z,99822.88
2018-08-12T00:10:44.050Z,99827.16
2018-08-12T00:13:11.751Z,99830.11
2018-08-12T00:15:39.517Z,99830.89
2018-08-12T00:18:07.205Z,99835.76
2018-08-12T00:20:34.923Z,99837.10
2018-08-12T00:23:02.741Z,99835.02
2018-08-12T00:25:30.534Z,99839.27
2018-08-12T00:27:58.257Z,99835.48
2018-08-12T00:30:25.965Z,99836.50
2018-08-12T00:32:53.641Z,99830.36
2018-08-12T00:35:21.337Z,99833.64
2018-08-12T00:37:49.032Z,99828.39
2018-08-12T00:40:17.393Z,99825.30
2018-08-12T00:42:45.649Z,99818.45
2018-08-12T00:45:15.761Z,99818.30
2018-08-12T00:47:43.865Z,99811.84
2018-08-12T00:50:12.521Z,99814.44
2018-08-12T00:52:40.230Z,99807.12
2018-08-12T00:55:10.437Z,99803.58
2018-08-12T00:57:38.230Z,99799.22
2018-08-12T01:00:12.218Z,99802.23
2018-08-12T01:02:39.992Z,99804.75
2018-08-12T01:05:09.533Z,99805.85
2018-08-12T01:07:37.264Z,99804.09
2018-08-12T01:10:05.889Z,99804.30
2018-08-12T01:12:33.813Z,99803.49
2018-08-12T01:15:01.654Z,99800.88
2018-08-12T01:17:29.370Z,99799.56
2018-08-12T01:19:57.046Z,99801.88
2018-08-12T01:22:24.754Z,99796.76
2018-08-12T01:24:52.441Z,99799.98
2018-08-12T01:27:20.150Z,99801.22
2018-08-12T01:29:47.920Z,99804.98
2018-08-12T01:32:15.621Z,99809.23
2018-08-12T01:34:43.301Z,99800.08
2018-08-12T01:37:11.035Z,99797.14
2018-08-12T01:39:38.801Z,99799.75
2018-08-12T01:42:07.033Z,99801.05
2018-08-12T01:44:34.732Z,99797.94
2018-08-12T01:47:02.446Z,99804.70
2018-08-12T01:49:30.182Z,99802.72
2018-08-12T01:51:57.949Z,99798.52
2018-08-12T01:54:25.644Z,99807.23
2018-08-12T01:56:53.345Z,99800.45
2018-08-12T01:59:21.037Z,99802.25
2018-08-12T02:01:48.708Z,99804.53
2018-08-12T02:04:16.433Z,99801.48
2018-08-12T02:06:44.094Z,99803.23
2018-08-12T02:09:11.756Z,99801.45
2018-08-12T02:11:39.686Z,99799.31
2018-08-12T02:14:07.762Z,99801.91
2018-08-12T02:16:35.856Z,99802.70
2018-08-12T02:19:03.572Z,99805.74
2018-08-12T02:21:31.237Z,99807.30
2018-08-12T02:23:58.916Z,99810.86
2018-08-12T02:26:26.590Z,99810.31
2018-08-12T02:28:54.401Z,99808.77
2018-08-12T02:31:22.071Z,99804.35
2018-08-12T02:33:49.734Z,99811.59
2018-08-12T02:36:17.451Z,99806.39
2018-08-12T02:38:45.096Z,99801.53
2018-08-12T02:41:12.810Z,99806.87
2018-08-12T02:43:40.627Z,99813.98
2018-08-12T02:46:08.342Z,99812.53
2018-08-12T02:48:36.047Z,99819.07
2018-08-12T02:51:03.748Z,99812.44
2018-08-12T02:53:31.474Z,99810.80
2018-08-12T02:55:59.168Z,99807.77
2018-08-12T02:58:26.898Z,99808.59
2018-08-12T03:00:54.711Z,99811.64
2018-08-12T03:03:22.424Z,99813.28
2018-08-12T03:05:50.127Z,99814.60
2018-08-12T03:08:17.886Z,99816.19
2018-08-12T03:10:45.562Z,99812.56
2018-08-12T03:13:13.306Z,99822.11
2018-08-12T03:15:40.981Z,99817.03
2018-08-12T03:18:08.729Z,99821.97
2018-08-12T03:20:36.431Z,99829.09
2018-08-12T03:23:04.200Z,99831.61
2018-08-12T03:25:31.899Z,99829.53
2018-08-12T03:27:59.619Z,99828.52
2018-08-12T03:30:27.358Z,99834.66
2018-08-12T03:32:55.045Z,99833.86
2018-08-12T03:35:22.758Z,99829.23
2018-08-12T03:37:50.480Z,99832.04
2018-08-12T03:40:18.141Z,99824.09
2018-08-12T03:42:45.829Z,99824.70
2018-08-12T03:45:13.524Z,99830.53
2018-08-12T03:47:41.476Z,99827.32
2018-08-12T03:50:10.241Z,99815.69
2018-08-12T03:52:38.318Z,99818.34
2018-08-12T03:55:06.589Z,99817.81
2018-08-12T03:57:34.278Z,99820.50
2018-08-12T04:00:02.016Z,99817.94
2018-08-12T04:02:29.685Z,99808.95
2018-08-12T04:04:57.358Z,99816.47
2018-08-12T04:07:25.109Z,99811.73
2018-08-12T04:09:52.749Z,99814.09
2018-08-12T04:12:20.481Z,99811.17
2018-08-12T04:14:48.170Z,99817.16
2018-08-12T04:17:15.878Z,99809.36
2018-08-12T04:19:43.589Z,99810.79
2018-08-12T04:22:11.296Z,99818.02
2018-08-12T04:24:38.957Z,99825.05
2018-08-12T04:27:06.708Z,99839.30
2018-08-12T04:29:34.465Z,99842.08
2018-08-12T04:32:02.198Z,99846.77
2018-08-12T04:34:29.881Z,99847.94
2018-08-12T04:36:57.562Z,99855.25
2018-08-12T04:39:25.300Z,99846.08
2018-08-12T04:41:52.990Z,99844.06
2018-08-12T04:44:20.733Z,99841.98
2018-08-12T04:46:48.422Z,99833.23
2018-08-12T04:49:16.103Z,99829.41
2018-08-12T04:51:43.828Z,99837.73
2018-08-12T04:54:11.489Z,99840.49
2018-08-12T04:56:39.184Z,99836.95
2018-08-12T04:59:06.945Z,99831.29
2018-08-12T05:01:34.727Z,99839.83
2018-08-12T05:04:02.445Z,99838.84
2018-08-12T05:06:30.142Z,99832.98
2018-08-12T05:08:57.865Z,99841.99
2018-08-12T05:11:25.670Z,99845.37
2018-08-12T05:13:53.395Z,99843.86
2018-08-12T05:16:21.073Z,99851.73
2018-08-12T05:18:48.801Z,99858.38
2018-08-12T05:21:16.505Z,99847.09
2018-08-12T05:23:44.203Z,99847.61
2018-08-12T05:26:11.845Z,99846.53
2018-08-12T05:28:39.550Z,99846.63
2018-08-12T05:31:07.221Z,99848.50
2018-08-12T05:33:35.044Z,99845.77
2018-08-12T05:36:02.820Z,99846.66
2018-08-12T05:38:30.479Z,99852.38
2018-08-12T05:40:58.165Z,99852.64
2018-08-12T05:43:25.841Z,99855.83
2018-08-12T05:45:53.544Z,99857.56
2018-08-12T05:48:21.313Z,99859.48
2018-08-12T05:50:48.999Z,99859.95
2018-08-12T05:53:16.700Z,99859.95
2018-08-12T05:55:44.438Z,99854.63
2018-08-12T05:58:12.159Z,99858.27
2018-08-12T06:00:39.998Z,99862.82
2018-08-12T06:03:07.700Z,99863.94
2018-08-12T06:05:35.539Z,99865.94
2018-08-12T06:08:03.392Z,99867.58
2018-08-12T06:10:31.151Z,99874.89
2018-08-12T06:12:58.891Z,99874.73
2018-08-12T06:15:26.634Z,99869.00
2018-08-12T06:17:54.332Z,99869.11
2018-08-12T06:20:22.184Z,99864.98
2018-08-12T06:22:49.965Z,99868.26
2018-08-12T06:25:17.734Z,99866.61
2018-08-12T06:27:45.430Z,99868.84
2018-08-12T06:30:14.187Z,99866.03
2018-08-12T06:35:15.286Z,99859.32
2018-08-12T06:37:43.291Z,99861.83
2018-08-12T06:40:12.305Z,99869.56
2018-08-12T06:42:41.602Z,99860.47
2018-08-12T06:45:11.836Z,99863.78
2018-08-12T06:47:39.666Z,99869.45
2018-08-12T06:50:08.614Z,99865.75
2018-08-12T06:52:36.753Z,99873.55
2018-08-12T06:55:05.213Z,99870.13
2018-08-12T06:57:32.917Z,99871.67
2018-08-12T07:00:00.578Z,99869.60
2018-08-12T07:02:28.317Z,99886.05
2018-08-12T07:04:55.998Z,99883.05
2018-08-12T07:07:23.999Z,99880.38
2018-08-12T07:09:51.695Z,99882.00
2018-08-12T07:12:19.409Z,99878.35
2018-08-12T07:14:47.170Z,99882.92
2018-08-12T07:17:14.846Z,99883.59
2018-08-12T07:19:42.503Z,99877.09
2018-08-12T07:22:10.181Z,99875.09
2018-08-12T07:24:37.986Z,99877.45
2018-08-12T07:27:05.852Z,99879.97
2018-08-12T07:29:33.532Z,99882.50
2018-08-12T07:32:01.257Z,99882.61
2018-08-12T07:34:28.984Z,99875.99
2018-08-12T07:36:56.685Z,99884.66
2018-08-12T07:39:24.342Z,99882.16
2018-08-12T07:41:52.093Z,99886.94
2018-08-12T07:44:19.853Z,99881.30
2018-08-12T07:46:47.525Z,99880.19
2018-08-12T07:49:15.189Z,99874.47
2018-08-12T07:51:42.937Z,99868.31
2018-08-12T07:54:10.610Z,99878.94
2018-08-12T07:56:38.269Z,99879.00
2018-08-12T07:59:05.989Z,99881.43
2018-08-12T08:01:33.639Z,99879.89
2018-08-12T08:04:01.326Z,99877.83
2018-08-12T08:06:28.976Z,99874.68
2018-08-12T08:08:56.733Z,99871.23
2018-08-12T08:11:24.425Z,99881.36
2018-08-12T08:13:52.109Z,99881.67
2018-08-12T08:16:19.893Z,99881.77
2018-08-12T08:18:47.671Z,99882.64
2018-08-12T08:21:15.465Z,99881.08
2018-08-12T08:23:43.206Z,99881.31
2018-08-12T08:26:10.905Z,99882.31
2018-08-12T08:28:38.609Z,99889.39
2018-08-12T08:31:06.479Z,99886.33
2018-08-12T08:33:34.208Z,99876.46
2018-08-12T08:36:01.982Z,99871.89
2018-08-12T08:38:29.725Z,99868.36
2018-08-12T08:40:57.441Z,99868.21
2018-08-12T08:43:25.185Z,99871.53
2018-08-12T08:45:52.910Z,99860.48
2018-08-12T08:48:20.632Z,99860.50
2018-08-12T08:50:48.459Z,99861.32
2018-08-12T08:53:16.694Z,99856.84
2018-08-12T08:55:44.433Z,99853.98
2018-08-12T08:58:12.166Z,99851.80
2018-08-12T09:00:39.907Z,99852.25
2018-08-12T09:03:07.607Z,99849.11
2018-08-12T09:05:35.369Z,99856.03
2018-08-12T09:08:03.235Z,99852.34
2018-08-12T09:10:31.169Z,99854.00
2018-08-12T09:12:58.973Z,99853.88
2018-08-12T09:15:26.655Z,99841.34
2018-08-12T09:17:54.330Z,99848.16
2018-08-12T09:20:22.080Z,99840.20
2018-08-12T09:22:49.772Z,99838.17
2018-08-12T09:25:17.708Z,99839.17
2018-08-12T09:27:45.547Z,99848.09
2018-08-12T09:30:20.791Z,99843.91
2018-08-12T09:32:48.804Z,99839.38
2018-08-12T09:35:16.677Z,99842.03
2018-08-12T09:37:44.377Z,99847.95
2018-08-12T09:40:15.594Z,99844.88
2018-08-12T09:42:44.034Z,99840.89
2018-08-12T09:45:13.949Z,99842.53
2018-08-12T09:47:41.710Z,99849.10
2018-08-12T09:50:10.255Z,99846.38
2018-08-12T09:52:38.397Z,99836.61
2018-08-12T09:55:06.638Z,99838.44
2018-08-12T09:57:34.915Z,99841.70
2018-08-12T10:00:02.821Z,99837.64
2018-08-12T10:02:30.549Z,99835.87
2018-08-12T10:04:58.309Z,99837.14
2018-08-12T10:07:26.105Z,99828.84
2018-08-12T10:09:53.774Z,99822.23
2018-08-12T10:12:21.467Z,99825.41
2018-08-12T10:14:49.133Z,99823.80
2018-08-12T10:17:16.926Z,99817.53
2018-08-12T10:19:44.714Z,99816.41
2018-08-12T10:22:12.526Z,99819.16
2018-08-12T10:24:40.354Z,99819.92
2018-08-12T10:27:08.125Z,99827.52
2018-08-12T10:29:35.825Z,99820.19
2018-08-12T10:32:03.662Z,99820.61
2018-08-12T10:34:31.408Z,99821.41
2018-08-12T10:36:59.154Z,99823.88
2018-08-12T10:39:27.194Z,99818.40
2018-08-12T10:41:54.866Z,99818.16
2018-08-12T10:44:22.564Z,99822.15
2018-08-12T10:46:50.271Z,99806.54
2018-08-12T10:49:18.018Z,99803.28
2018-08-12T10:51:45.786Z,99800.26
2018-08-12T10:54:13.640Z,99801.42
2018-08-12T10:56:41.507Z,99798.06
2018-08-12T10:59:09.312Z,99796.59
2018-08-12T11:01:37.208Z,99795.72
2018-08-12T11:04:05.036Z,99801.09
2018-08-12T11:06:32.846Z,99805.78
2018-08-12T11:09:00.987Z,99796.84
2018-08-12T11:11:28.849Z,99800.92
2018-08-12T11:13:56.593Z,99785.84
2018-08-12T11:16:24.750Z,99789.87
2018-08-12T11:18:52.515Z,99791.67
2018-08-12T11:21:20.211Z,99795.55
2018-08-12T11:23:47.921Z,99799.30
2018-08-12T11:26:15.606Z,99798.66
2018-08-12T11:28:43.329Z,99796.03
2018-08-12T11:31:11.020Z,99793.28
2018-08-12T11:33:39.566Z,99795.41
2018-08-12T11:36:07.263Z,99795.37
2018-08-12T11:38:34.993Z,99797.26
2018-08-12T11:41:02.820Z,99785.38
2018-08-12T11:43:30.642Z,99790.64
2018-08-12T11:45:58.391Z,99791.66
2018-08-12T11:48:26.071Z,99793.73
2018-08-12T11:50:53.772Z,99789.06
2018-08-12T11:53:21.495Z,99781.48
2018-08-12T11:55:49.274Z,99782.52
2018-08-12T11:58:16.965Z,99775.97
2018-08-12T12:00:44.837Z,99772.00
2018-08-12T12:03:12.571Z,99768.50
2018-08-12T12:05:40.402Z,99767.25
2018-08-12T12:08:08.184Z,99761.14
2018-08-12T12:10:35.934Z,99757.92
2018-08-12T12:13:03.710Z,99770.17
2018-08-12T12:15:31.423Z,99766.85
2018-08-12T12:17:59.310Z,99758.23
2018-08-12T12:20:27.076Z,99759.66
2018-08-12T12:22:54.827Z,99753.21
2018-08-12T12:25:22.547Z,99743.13
2018-08-12T12:27:50.379Z,99746.66
2018-08-12T12:30:19.756Z,99738.58
2018-08-12T12:32:48.342Z,99741.28
2018-08-12T12:35:16.238Z,99750.41
2018-08-12T12:37:43.996Z,99742.33
2018-08-12T12:40:13.788Z,99740.52
2018-08-12T12:42:41.874Z,99724.50
2018-08-12T12:45:11.060Z,99733.40
2018-08-12T12:47:39.455Z,99730.21
2018-08-12T12:50:09.816Z,99734.06
2018-08-12T12:52:37.997Z,99725.36
2018-08-12T12:55:06.029Z,99720.06
2018-08-12T12:57:33.833Z,99719.91
2018-08-12T13:00:01.947Z,99714.41
2018-08-12T13:02:29.687Z,99704.06
2018-08-12T13:04:57.672Z,99702.80
2018-08-12T13:07:25.446Z,99701.44
2018-08-12T13:09:53.122Z,99705.55
2018-08-12T13:12:20.906Z,99700.92
2018-08-12T13:14:48.625Z,99700.02
2018-08-12T13:17:16.433Z,99700.06
2018-08-12T13:19:44.210Z,99695.52
2018-08-12T13:22:11.913Z,99697.60
2018-08-12T13:24:39.680Z,99689.61
2018-08-12T13:27:07.467Z,99687.31
2018-08-12T13:29:35.216Z,99681.09
2018-08-12T13:32:03.102Z,99685.52
2018-08-12T13:34:30.783Z,99677.16
2018-08-12T13:36:58.467Z,99677.04
2018-08-12T13:39:26.428Z,99680.97
2018-08-12T13:41:54.125Z,99680.09
2018-08-12T13:44:21.798Z,99678.34
2018-08-12T13:46:49.860Z,99673.69
2018-08-12T13:49:17.700Z,99674.51
2018-08-12T13:51:45.370Z,99677.22
2018-08-12T13:54:13.168Z,99674.44
2018-08-12T13:56:40.948Z,99669.68
2018-08-12T13:59:08.748Z,99668.00
2018-08-12T14:01:36.652Z,99680.16
2018-08-12T14:04:04.427Z,99671.36
2018-08-12T14:06:32.152Z,99666.28
2018-08-12T14:08:59.917Z,99670.05
2018-08-12T14:11:27.641Z,99671.66
2018-08-12T14:13:55.484Z,99662.45
2018-08-12T14:16:23.245Z,99664.52
2018-08-12T14:18:51.009Z,99654.15
2018-08-12T14:21:18.800Z,99661.45
2018-08-12T14:23:46.474Z,99653.36
2018-08-12T14:26:14.222Z,99653.66
2018-08-12T14:28:41.930Z,99652.06
2018-08-12T14:31:09.670Z,99654.04
2018-08-12T14:33:37.384Z,99653.97
2018-08-12T14:36:05.094Z,99655.61
2018-08-12T14:38:32.789Z,99653.84
2018-08-12T14:41:00.502Z,99650.17
2018-08-12T14:43:28.247Z,99650.33
2018-08-12T14:45:55.933Z,99648.02
2018-08-12T14:48:23.625Z,99646.11
2018-08-12T14:50:51.378Z,99657.61
2018-08-12T14:53:19.085Z,99661.70
2018-08-12T14:55:46.810Z,99649.13
2018-08-12T14:58:14.527Z,99651.09
2018-08-12T15:00:42.211Z,99646.94
2018-08-12T15:03:10.058Z,99649.05
2018-08-12T15:05:37.920Z,99649.56
2018-08-12T15:08:05.638Z,99642.94
2018-08-12T15:10:33.414Z,99643.83
2018-08-12T15:13:01.106Z,99635.30
2018-08-12T15:15:28.785Z,99628.30
2018-08-12T15:17:56.500Z,99639.03
2018-08-12T15:20:24.258Z,99630.39
2018-08-12T15:22:52.195Z,99631.72
2018-08-12T15:25:20.638Z,99631.02
2018-08-12T15:27:48.546Z,99634.86
2018-08-12T15:30:16.312Z,99625.38
2018-08-12T15:32:44.035Z,99632.41
2018-08-12T15:35:11.818Z,99633.08
2018-08-12T15:37:39.548Z,99633.23
2018-08-12T15:40:09.673Z,99628.00
2018-08-12T15:42:37.361Z,99633.03
2018-08-12T15:45:07.518Z,99629.81
2018-08-12T15:47:35.312Z,99640.92
2018-08-12T15:50:03.216Z,99635.37
2018-08-12T15:52:30.925Z,99645.73
2018-08-12T15:54:58.672Z,99643.62
2018-08-12T15:57:26.394Z,99638.09
2018-08-12T15:59:54.464Z,99642.98
2018-08-12T16:02:22.310Z,99644.27
2018-08-12T16:04:50.023Z,99645.84
2018-08-12T16:07:17.729Z,99637.55
2018-08-12T16:09:45.571Z,99640.42
2018-08-12T16:12:13.305Z,99635.85
2018-08-12T16:14:41.022Z,99644.75
2018-08-12T16:17:08.855Z,99639.48
2018-08-12T16:19:36.547Z,99639.73
2018-08-12T16:22:04.361Z,99647.08
2018-08-12T16:24:32.178Z,99640.79
2018-08-12T16:26:59.844Z,99642.11
2018-08-12T16:29:27.527Z,99639.03
2018-08-12T16:31:55.219Z,99637.90
2018-08-12T16:34:22.903Z,99645.55
2018-08-12T16:36:50.605Z,99641.23
2018-08-12T16:39:18.353Z,99640.46
2018-08-12T16:41:46.083Z,99648.17
2018-08-12T16:44:14.732Z,99650.14
2018-08-12T16:46:42.471Z,99644.20
2018-08-12T16:49:10.230Z,99646.95
2018-08-12T16:51:37.981Z,99647.58
2018-08-12T16:54:06.220Z,99644.47
2018-08-12T16:56:33.972Z,99654.97
2018-08-12T16:59:01.653Z,99655.01
2018-08-12T17:01:29.378Z,99655.34
2018-08-12T17:03:57.198Z,99652.73
2018-08-12T17:06:24.941Z,99654.23
2018-08-12T17:08:52.695Z,99651.69
2018-08-12T17:11:20.464Z,99649.59
2018-08-12T17:13:48.294Z,99654.33
2018-08-12T17:16:15.994Z,99648.34
2018-08-12T17:18:43.696Z,99648.89
2018-08-12T17:21:11.422Z,99654.95
2018-08-12T17:23:39.100Z,99659.17
2018-08-12T17:26:06.986Z,99653.14
2018-08-12T17:28:34.630Z,99653.93
2018-08-12T17:31:02.358Z,99651.03
2018-08-12T17:33:30.157Z,99657.56
2018-08-12T17:35:57.879Z,99667.08
2018-08-12T17:38:25.665Z,99661.19
2018-08-12T17:40:53.433Z,99661.45
2018-08-12T17:43:21.148Z,99666.21
2018-08-12T17:45:48.894Z,99669.29
2018-08-12T17:48:16.790Z,99665.00
2018-08-12T17:50:44.715Z,99668.39
2018-08-12T17:53:12.556Z,99673.92
2018-08-12T17:55:40.260Z,99671.98
2018-08-12T17:58:08.079Z,99673.75
2018-08-12T18:00:35.828Z,99672.88
2018-08-12T18:03:03.679Z,99673.87
2018-08-12T18:05:31.398Z,99680.09
2018-08-12T18:07:59.090Z,99680.13
2018-08-12T18:10:26.778Z,99679.32
2018-08-12T18:12:54.425Z,99681.32
2018-08-12T18:15:22.118Z,99686.95
2018-08-12T18:17:49.790Z,99675.53
2018-08-12T18:20:17.530Z,99680.14
2018-08-12T18:22:45.213Z,99675.44
2018-08-12T18:25:12.905Z,99680.23
2018-08-12T18:27:41.395Z,99682.80
2018-08-12T18:30:12.645Z,99685.47
2018-08-12T18:32:40.585Z,99689.00
2018-08-12T18:35:09.202Z,99684.33
2018-08-12T18:37:36.916Z,99688.95
2018-08-12T18:40:05.769Z,99684.30
2018-08-12T18:42:33.524Z,99686.72
2018-08-12T18:45:01.274Z,99683.13
2018-08-12T18:47:28.985Z,99686.36
2018-08-12T18:49:56.778Z,99688.74
2018-08-12T18:52:24.528Z,99687.42
2018-08-12T18:54:52.304Z,99685.20
2018-08-12T18:57:20.001Z,99678.42
2018-08-12T18:59:47.649Z,99688.02
2018-08-12T19:02:15.393Z,99687.22
2018-08-12T19:04:43.121Z,99683.13
2018-08-12T19:07:10.941Z,99685.52
2018-08-12T19:09:38.666Z,99695.09
2018-08-12T19:12:06.427Z,99690.58
2018-08-12T19:14:34.151Z,99695.06
2018-08-12T19:17:01.890Z,99696.87
2018-08-12T19:19:29.562Z,99691.88
2018-08-12T19:21:57.380Z,99696.48
2018-08-12T19:24:25.135Z,99694.45
2018-08-12T19:26:52.886Z,99695.48
2018-08-12T19:29:20.647Z,99696.43
2018-08-12T19:31:48.349Z,99699.64
2018-08-12T19:34:16.169Z,99701.25
2018-08-12T19:36:43.870Z,99701.45
2018-08-12T19:39:11.893Z,99703.45
2018-08-12T19:41:39.861Z,99698.78
2018-08-12T19:44:08.039Z,99699.52
2018-08-12T19:46:36.059Z,99701.45
2018-08-12T19:49:03.712Z,99700.11
2018-08-12T19:51:31.402Z,99693.41
2018-08-12T19:53:59.710Z,99696.87
2018-08-12T19:56:27.450Z,99695.35
2018-08-12T19:58:55.139Z,99693.14
2018-08-12T20:01:22.901Z,99689.64
2018-08-12T20:03:50.646Z,99697.55
2018-08-12T20:06:18.616Z,99692.08
2018-08-12T20:08:46.377Z,99695.81
2018-08-12T20:11:14.081Z,99695.78
2018-08-12T20:13:41.838Z,99698.44
2018-08-12T20:16:09.776Z,99695.60
2018-08-12T20:18:37.589Z,99694.78
2018-08-12T20:21:05.308Z,99705.23
2018-08-12T20:23:33.009Z,99698.09
2018-08-12T20:26:00.793Z,99700.98
2018-08-12T20:28:28.661Z,99710.67
2018-08-12T20:30:56.363Z,99709.41
2018-08-12T20:33:24.086Z,99708.51
2018-08-12T20:35:51.850Z,99701.45
2018-08-12T20:38:19.616Z,99705.50
2018-08-12T20:40:47.384Z,99706.38
2018-08-12T20:43:15.128Z,99702.53
2018-08-12T20:45:42.898Z,99707.56
2018-08-12T20:48:10.602Z,99703.22
2018-08-12T20:50:38.403Z,99703.22
2018-08-12T20:53:06.150Z,99702.94
2018-08-12T20:55:33.885Z,99696.88
2018-08-12T20:58:01.578Z,99695.26
2018-08-12T21:00:29.246Z,99699.93
2018-08-12T21:02:56.982Z,99702.98
2018-08-12T21:05:24.681Z,99703.27
2018-08-12T21:07:52.381Z,99706.03
2018-08-12T21:10:20.102Z,99709.62
2018-08-12T21:12:47.821Z,99710.17
2018-08-12T21:15:15.546Z,99714.30
2018-08-12T21:17:43.212Z,99719.30
2018-08-12T21:20:10.994Z,99720.12
2018-08-12T21:22:39.061Z,99716.02
2018-08-12T21:25:06.946Z,99717.94
2018-08-12T21:27:34.816Z,99716.82
2018-08-12T21:30:02.654Z,99714.37
2018-08-12T21:32:30.346Z,99710.80
2018-08-12T21:34:58.014Z,99711.61
2018-08-12T21:37:25.665Z,99712.14
2018-08-12T21:39:53.341Z,99710.80
2018-08-12T21:42:21.095Z,99710.17
2018-08-12T21:44:48.814Z,99711.28
2018-08-12T21:47:16.490Z,99707.72
2018-08-12T21:49:44.155Z,99709.90
2018-08-12T21:52:11.882Z,99706.33
2018-08-12T21:54:39.577Z,99712.88
2018-08-12T21:57:07.229Z,99709.33
2018-08-12T21:59:34.887Z,99715.01
2018-08-12T22:02:02.757Z,99727.39
2018-08-12T22:04:30.486Z,99723.38
2018-08-12T22:06:58.251Z,99723.89
2018-08-12T22:09:25.902Z,99716.33
2018-08-12T22:11:53.566Z,99723.19
2018-08-12T22:14:21.254Z,99719.32
2018-08-12T22:16:48.969Z,99728.19
2018-08-12T22:19:16.641Z,99724.59
2018-08-12T22:21:44.410Z,99721.84
2018-08-12T22:24:12.115Z,99723.77
2018-08-12T22:26:39.831Z,99722.91
2018-08-12T22:29:07.500Z,99724.81
2018-08-12T22:31:35.281Z,99723.34
2018-08-12T22:34:03.069Z,99718.31
2018-08-12T22:36:30.817Z,99714.20
2018-08-12T22:38:58.539Z,99709.80
2018-08-12T22:41:26.214Z,99710.11
2018-08-12T22:43:53.911Z,99710.16
2018-08-12T22:46:21.634Z,99709.11
2018-08-12T22:48:49.285Z,99713.18
2018-08-12T22:51:16.985Z,99707.52
2018-08-12T22:53:44.660Z,99709.45
2018-08-12T22:56:12.455Z,99704.94
2018-08-12T22:58:40.156Z,99702.21
2018-08-12T23:01:08.771Z,99704.31
2018-08-12T23:03:36.467Z,99702.05
2018-08-12T23:06:04.202Z,99702.77
2018-08-12T23:08:31.905Z,99704.92
2018-08-12T23:10:59.573Z,99700.73
2018-08-12T23:13:27.279Z,99697.40
2018-08-12T23:16:16.485Z,99694.34
2018-08-12T23:18:44.197Z,99691.94
2018-08-12T23:21:12.945Z,99697.38
2018-08-12T23:23:42.213Z,99695.77
2018-08-12T23:26:11.337Z,99690.22
2018-08-12T23:28:39.044Z,99691.53
2018-08-12T23:31:06.934Z,99692.05
2018-08-12T23:33:34.617Z,99685.65
2018-08-12T23:36:02.287Z,99688.42
2018-08-12T23:38:29.960Z,99681.06
2018-08-12T23:40:57.625Z,99680.92
2018-08-12T23:43:25.793Z,99677.15
2018-08-12T23:45:53.477Z,99677.20
2018-08-12T23:48:21.173Z,99671.86
2018-08-12T23:50:48.881Z,99671.66
2018-08-12T23:53:16.558Z,99677.72
2018-08-12T23:55:44.262Z,99678.66
2018-08-12T23:58:12.054Z,99677.34
